Terminal Aerodrome Forecast
Issued by NWS

Home | Current Version | Previous Version | Text Only | Print | Product List | Glossary On
Versions: 1 2 3 4 5 6 7 8 9 10 11 12 13 14
647
FTAK31 PAJN 050946 AAC
TAFAJN
TAF AMD
PAJN 050946Z 0510/0606 10010KT 6SM -RA SCT025 OVC035
     FM051200 10012KT 6SM -RA BR BKN025 OVC035
     FM052300 11015G26KT 6SM -RA BR BKN020 OVC035=

USA.gov is the U.S. government's official web portal to all federal, state and local government web resources and services.